sensor_id;sensor_type;location;lat;lon;timestamp;pressure;altitude;pressure_sealevel;temperature;humidity
60099;BME280;62818;49.394;8.686;2024-03-29T00:03:30;98584.41;;;11.04;68.19
60099;BME280;62818;49.394;8.686;2024-03-29T00:08:31;98573.88;;;10.97;68.51
60099;BME280;62818;49.394;8.686;2024-03-29T00:13:31;98564.53;;;10.95;67.74
60099;BME280;62818;49.394;8.686;2024-03-29T00:18:32;98552.00;;;11.02;67.45
60099;BME280;62818;49.394;8.686;2024-03-29T00:23:32;98522.28;;;10.82;68.87
60099;BME280;62818;49.394;8.686;2024-03-29T00:28:32;98524.19;;;10.93;67.44
60099;BME280;62818;49.394;8.686;2024-03-29T00:33:33;98537.47;;;10.75;67.65
60099;BME280;62818;49.394;8.686;2024-03-29T00:38:33;98527.81;;;10.80;67.55
60099;BME280;62818;49.394;8.686;2024-03-29T00:43:34;98524.94;;;10.82;67.26
60099;BME280;62818;49.394;8.686;2024-03-29T00:48:34;98500.66;;;10.85;67.31
60099;BME280;62818;49.394;8.686;2024-03-29T00:53:34;98497.59;;;10.99;65.85
60099;BME280;62818;49.394;8.686;2024-03-29T00:58:35;98500.16;;;11.06;64.99
60099;BME280;62818;49.394;8.686;2024-03-29T01:03:35;98487.22;;;10.98;64.75
60099;BME280;62818;49.394;8.686;2024-03-29T01:08:35;98473.69;;;10.88;65.93
60099;BME280;62818;49.394;8.686;2024-03-29T01:13:36;98478.38;;;11.04;64.10
60099;BME280;62818;49.394;8.686;2024-03-29T01:18:36;98468.25;;;11.12;63.40
60099;BME280;62818;49.394;8.686;2024-03-29T01:23:36;98442.69;;;11.18;62.85
60099;BME280;62818;49.394;8.686;2024-03-29T01:28:37;98428.22;;;11.32;62.45
60099;BME280;62818;49.394;8.686;2024-03-29T01:33:38;98451.66;;;11.17;63.56
60099;BME280;62818;49.394;8.686;2024-03-29T01:38:41;98464.22;;;11.10;63.83
60099;BME280;62818;49.394;8.686;2024-03-29T01:43:42;98431.03;;;11.07;64.88
60099;BME280;62818;49.394;8.686;2024-03-29T01:48:42;98438.84;;;11.02;65.83
60099;BME280;62818;49.394;8.686;2024-03-29T01:53:42;98442.25;;;10.91;66.38
60099;BME280;62818;49.394;8.686;2024-03-29T01:58:43;98420.59;;;10.94;67.38
60099;BME280;62818;49.394;8.686;2024-03-29T02:03:45;98472.94;;;10.99;67.62
60099;BME280;62818;49.394;8.686;2024-03-29T02:08:48;98480.34;;;10.79;69.65
60099;BME280;62818;49.394;8.686;2024-03-29T02:13:51;98463.81;;;10.95;69.45
60099;BME280;62818;49.394;8.686;2024-03-29T02:18:53;98446.28;;;10.94;69.91
60099;BME280;62818;49.394;8.686;2024-03-29T02:24:11;98426.78;;;11.18;68.33
60099;BME280;62818;49.394;8.686;2024-03-29T02:29:16;98430.72;;;11.27;67.17
60099;BME280;62818;49.394;8.686;2024-03-29T02:34:16;98428.47;;;11.65;65.44
60099;BME280;62818;49.394;8.686;2024-03-29T02:39:16;98439.91;;;11.54;66.00
60099;BME280;62818;49.394;8.686;2024-03-29T02:44:17;98469.25;;;11.94;63.00
60099;BME280;62818;49.394;8.686;2024-03-29T02:49:17;98428.47;;;11.65;64.30
60099;BME280;62818;49.394;8.686;2024-03-29T02:54:17;98459.16;;;11.61;64.80
60099;BME280;62818;49.394;8.686;2024-03-29T02:59:18;98468.44;;;12.40;59.68
60099;BME280;62818;49.394;8.686;2024-03-29T03:04:18;98465.34;;;11.73;63.28
60099;BME280;62818;49.394;8.686;2024-03-29T03:09:19;98470.16;;;12.34;59.11
60099;BME280;62818;49.394;8.686;2024-03-29T03:14:37;98484.25;;;12.12;59.96
60099;BME280;62818;49.394;8.686;2024-03-29T03:19:37;98473.31;;;11.97;60.54
60099;BME280;62818;49.394;8.686;2024-03-29T03:24:38;98465.19;;;11.68;62.82
60099;BME280;62818;49.394;8.686;2024-03-29T03:29:38;98476.38;;;12.63;55.63
60099;BME280;62818;49.394;8.686;2024-03-29T03:34:39;98485.25;;;12.69;54.71
60099;BME280;62818;49.394;8.686;2024-03-29T03:39:39;98500.28;;;13.03;52.48
60099;BME280;62818;49.394;8.686;2024-03-29T03:44:40;98510.59;;;12.99;52.15
60099;BME280;62818;49.394;8.686;2024-03-29T03:49:40;98517.59;;;12.77;57.22
60099;BME280;62818;49.394;8.686;2024-03-29T03:54:40;98527.13;;;12.38;64.80
60099;BME280;62818;49.394;8.686;2024-03-29T03:59:41;98483.91;;;12.43;68.67
60099;BME280;62818;49.394;8.686;2024-03-29T04:04:41;98486.22;;;12.51;74.25
60099;BME280;62818;49.394;8.686;2024-03-29T04:09:41;98462.97;;;12.58;83.58
60099;BME280;62818;49.394;8.686;2024-03-29T04:14:41;98456.53;;;12.82;84.26
60099;BME280;62818;49.394;8.686;2024-03-29T04:19:42;98455.06;;;13.14;81.76
60099;BME280;62818;49.394;8.686;2024-03-29T04:24:42;98452.00;;;13.22;81.51
60099;BME280;62818;49.394;8.686;2024-03-29T04:29:42;98436.59;;;12.96;83.62
60099;BME280;62818;49.394;8.686;2024-03-29T04:34:45;98437.06;;;12.65;87.02
60099;BME280;62818;49.394;8.686;2024-03-29T04:39:46;98433.59;;;12.25;89.37
60099;BME280;62818;49.394;8.686;2024-03-29T04:44:47;98452.88;;;12.09;90.29
60099;BME280;62818;49.394;8.686;2024-03-29T04:49:47;98449.16;;;12.10;86.08
60099;BME280;62818;49.394;8.686;2024-03-29T04:54:47;98442.78;;;12.34;80.24
60099;BME280;62818;49.394;8.686;2024-03-29T04:59:48;98444.66;;;12.22;80.60
60099;BME280;62818;49.394;8.686;2024-03-29T05:04:48;98435.31;;;12.19;77.47
60099;BME280;62818;49.394;8.686;2024-03-29T05:09:48;98433.59;;;12.02;85.92
60099;BME280;62818;49.394;8.686;2024-03-29T05:14:49;98432.59;;;11.38;100.00
60099;BME280;62818;49.394;8.686;2024-03-29T05:19:49;98433.56;;;11.14;100.00
60099;BME280;62818;49.394;8.686;2024-03-29T05:24:53;98434.88;;;11.76;89.29
60099;BME280;62818;49.394;8.686;2024-03-29T05:29:56;98421.22;;;11.08;99.98
60099;BME280;62818;49.394;8.686;2024-03-29T05:34:57;98413.97;;;11.68;88.82
60099;BME280;62818;49.394;8.686;2024-03-29T05:39:57;98405.66;;;12.11;82.50
60099;BME280;62818;49.394;8.686;2024-03-29T05:45:01;98430.13;;;12.13;80.83
60099;BME280;62818;49.394;8.686;2024-03-29T05:50:01;98443.75;;;12.05;79.50
60099;BME280;62818;49.394;8.686;2024-03-29T05:55:02;98435.88;;;12.10;80.23
60099;BME280;62818;49.394;8.686;2024-03-29T06:00:07;98465.34;;;12.20;78.48
60099;BME280;62818;49.394;8.686;2024-03-29T06:05:11;98482.91;;;12.09;75.14
60099;BME280;62818;49.394;8.686;2024-03-29T06:10:11;98473.56;;;12.07;73.86
60099;BME280;62818;49.394;8.686;2024-03-29T06:15:12;98484.75;;;12.20;70.20
60099;BME280;62818;49.394;8.686;2024-03-29T06:20:31;98490.47;;;12.40;65.44
60099;BME280;62818;49.394;8.686;2024-03-29T06:25:33;98497.09;;;12.26;65.47
60099;BME280;62818;49.394;8.686;2024-03-29T06:30:33;98478.63;;;12.20;65.68
60099;BME280;62818;49.394;8.686;2024-03-29T06:35:33;98470.16;;;12.97;60.22
60099;BME280;62818;49.394;8.686;2024-03-29T06:40:34;98466.03;;;12.78;60.20
60099;BME280;62818;49.394;8.686;2024-03-29T06:45:34;98459.16;;;12.54;61.92
60099;BME280;62818;49.394;8.686;2024-03-29T06:50:35;98449.66;;;12.58;62.49
60099;BME280;62818;49.394;8.686;2024-03-29T06:55:35;98449.41;;;11.97;65.25
60099;BME280;62818;49.394;8.686;2024-03-29T07:00:38;98440.88;;;12.18;63.75
60099;BME280;62818;49.394;8.686;2024-03-29T07:05:38;98428.28;;;12.25;63.38
60099;BME280;62818;49.394;8.686;2024-03-29T07:10:39;98430.47;;;13.07;58.75
60099;BME280;62818;49.394;8.686;2024-03-29T07:15:39;98443.91;;;12.61;57.61
60099;BME280;62818;49.394;8.686;2024-03-29T07:20:40;98451.84;;;12.73;59.23
60099;BME280;62818;49.394;8.686;2024-03-29T07:25:40;98459.25;;;13.10;57.67
60099;BME280;62818;49.394;8.686;2024-03-29T07:30:41;98484.22;;;12.58;61.11
60099;BME280;62818;49.394;8.686;2024-03-29T07:35:42;98501.56;;;13.00;59.15
60099;BME280;62818;49.394;8.686;2024-03-29T07:40:42;98494.94;;;12.86;61.64
60099;BME280;62818;49.394;8.686;2024-03-29T07:45:44;98503.91;;;13.08;63.14
60099;BME280;62818;49.394;8.686;2024-03-29T07:50:45;98515.50;;;13.30;68.85
60099;BME280;62818;49.394;8.686;2024-03-29T07:55:46;98508.72;;;13.11;76.70
60099;BME280;62818;49.394;8.686;2024-03-29T08:00:50;98513.16;;;12.94;84.93
60099;BME280;62818;49.394;8.686;2024-03-29T08:05:58;98516.66;;;12.83;91.00
60099;BME280;62818;49.394;8.686;2024-03-29T08:10:59;98514.00;;;12.72;95.16
60099;BME280;62818;49.394;8.686;2024-03-29T08:16:00;98522.25;;;12.47;100.00
60099;BME280;62818;49.394;8.686;2024-03-29T08:21:01;98526.78;;;12.35;100.00
60099;BME280;62818;49.394;8.686;2024-03-29T08:26:01;98532.69;;;12.14;100.00
60099;BME280;62818;49.394;8.686;2024-03-29T08:31:04;98547.66;;;11.97;100.00
60099;BME280;62818;49.394;8.686;2024-03-29T08:36:06;98565.41;;;11.84;100.00
60099;BME280;62818;49.394;8.686;2024-03-29T08:41:08;98580.38;;;11.67;100.00
60099;BME280;62818;49.394;8.686;2024-03-29T08:46:09;98581.75;;;11.22;100.00
60099;BME280;62818;49.394;8.686;2024-03-29T08:51:09;98579.03;;;11.10;100.00
60099;BME280;62818;49.394;8.686;2024-03-29T08:56:10;98596.06;;;10.85;100.00
60099;BME280;62818;49.394;8.686;2024-03-29T09:01:12;98609.03;;;10.75;100.00
60099;BME280;62818;49.394;8.686;2024-03-29T09:06:14;98616.22;;;10.68;100.00
60099;BME280;62818;49.394;8.686;2024-03-29T09:11:15;98639.81;;;10.94;100.00
60099;BME280;62818;49.394;8.686;2024-03-29T09:16:16;98633.34;;;11.08;100.00
60099;BME280;62818;49.394;8.686;2024-03-29T09:21:16;98641.72;;;11.05;100.00
60099;BME280;62818;49.394;8.686;2024-03-29T09:26:17;98644.31;;;11.30;100.00
60099;BME280;62818;49.394;8.686;2024-03-29T09:31:18;98647.22;;;11.40;100.00
60099;BME280;62818;49.394;8.686;2024-03-29T09:36:21;98666.22;;;11.55;100.00
60099;BME280;62818;49.394;8.686;2024-03-29T09:41:25;98671.03;;;11.28;100.00
60099;BME280;62818;49.394;8.686;2024-03-29T09:46:28;98685.47;;;11.14;100.00
60099;BME280;62818;49.394;8.686;2024-03-29T09:51:29;98677.06;;;11.35;100.00
60099;BME280;62818;49.394;8.686;2024-03-29T09:56:31;98674.56;;;11.40;100.00
60099;BME280;62818;49.394;8.686;2024-03-29T10:01:31;98678.41;;;11.26;100.00
60099;BME280;62818;49.394;8.686;2024-03-29T10:06:33;98680.19;;;11.68;100.00
60099;BME280;62818;49.394;8.686;2024-03-29T10:11:35;98659.75;;;11.99;100.00
60099;BME280;62818;49.394;8.686;2024-03-29T10:16:35;98667.81;;;11.92;100.00
60099;BME280;62818;49.394;8.686;2024-03-29T10:21:36;98669.28;;;13.05;100.00
60099;BME280;62818;49.394;8.686;2024-03-29T10:26:40;98655.00;;;12.53;100.00
60099;BME280;62818;49.394;8.686;2024-03-29T10:31:41;98659.91;;;14.39;100.00
60099;BME280;62818;49.394;8.686;2024-03-29T10:36:41;98648.06;;;15.01;100.00
60099;BME280;62818;49.394;8.686;2024-03-29T10:41:42;98648.44;;;14.71;100.00
60099;BME280;62818;49.394;8.686;2024-03-29T10:46:46;98647.06;;;13.91;100.00
60099;BME280;62818;49.394;8.686;2024-03-29T10:51:48;98642.44;;;13.07;100.00
60099;BME280;62818;49.394;8.686;2024-03-29T10:56:55;98633.78;;;12.01;100.00
60099;BME280;62818;49.394;8.686;2024-03-29T11:02:11;98614.00;;;12.73;100.00
60099;BME280;62818;49.394;8.686;2024-03-29T11:07:15;98596.44;;;12.72;100.00
60099;BME280;62818;49.394;8.686;2024-03-29T11:12:22;98600.56;;;14.81;100.00
60099;BME280;62818;49.394;8.686;2024-03-29T11:17:24;98589.81;;;12.97;100.00
60099;BME280;62818;49.394;8.686;2024-03-29T11:22:26;98570.97;;;13.50;100.00
60099;BME280;62818;49.394;8.686;2024-03-29T11:27:27;98573.19;;;14.31;100.00
60099;BME280;62818;49.394;8.686;2024-03-29T11:32:37;98557.06;;;15.94;100.00
60099;BME280;62818;49.394;8.686;2024-03-29T11:37:39;98548.13;;;16.15;100.00
60099;BME280;62818;49.394;8.686;2024-03-29T11:42:49;98547.16;;;15.41;100.00
60099;BME280;62818;49.394;8.686;2024-03-29T11:47:54;98555.91;;;15.85;100.00
60099;BME280;62818;49.394;8.686;2024-03-29T11:52:55;98573.50;;;15.54;100.00
60099;BME280;62818;49.394;8.686;2024-03-29T11:57:56;98589.13;;;15.03;100.00
60099;BME280;62818;49.394;8.686;2024-03-29T12:02:56;98589.81;;;15.58;100.00
60099;BME280;62818;49.394;8.686;2024-03-29T12:07:58;98602.72;;;15.23;100.00
60099;BME280;62818;49.394;8.686;2024-03-29T12:12:59;98607.50;;;14.99;100.00
60099;BME280;62818;49.394;8.686;2024-03-29T12:18:01;98618.22;;;13.88;100.00
60099;BME280;62818;49.394;8.686;2024-03-29T12:23:03;98636.81;;;14.61;100.00
60099;BME280;62818;49.394;8.686;2024-03-29T12:28:06;98643.13;;;14.38;100.00
60099;BME280;62818;49.394;8.686;2024-03-29T12:33:19;98642.03;;;13.78;100.00
60099;BME280;62818;49.394;8.686;2024-03-29T12:38:21;98650.41;;;13.70;100.00
60099;BME280;62818;49.394;8.686;2024-03-29T12:43:23;98665.97;;;13.50;100.00
60099;BME280;62818;49.394;8.686;2024-03-29T12:48:23;98679.16;;;13.45;100.00
60099;BME280;62818;49.394;8.686;2024-03-29T12:53:24;98680.94;;;12.93;100.00
60099;BME280;62818;49.394;8.686;2024-03-29T12:58:24;98683.28;;;13.12;100.00
60099;BME280;62818;49.394;8.686;2024-03-29T13:03:24;98698.41;;;12.77;100.00
60099;BME280;62818;49.394;8.686;2024-03-29T13:08:25;98693.06;;;13.75;100.00
60099;BME280;62818;49.394;8.686;2024-03-29T13:13:26;98692.53;;;14.29;100.00
60099;BME280;62818;49.394;8.686;2024-03-29T13:18:26;98702.06;;;15.63;100.00
60099;BME280;62818;49.394;8.686;2024-03-29T13:23:26;98720.38;;;15.00;100.00
60099;BME280;62818;49.394;8.686;2024-03-29T13:28:26;98731.56;;;13.44;100.00
60099;BME280;62818;49.394;8.686;2024-03-29T13:33:27;98673.69;;;15.40;100.00
60099;BME280;62818;49.394;8.686;2024-03-29T13:38:27;98725.28;;;12.69;100.00
60099;BME280;62818;49.394;8.686;2024-03-29T13:43:28;98799.63;;;11.68;100.00
60099;BME280;62818;49.394;8.686;2024-03-29T13:48:28;98796.06;;;12.70;100.00
60099;BME280;62818;49.394;8.686;2024-03-29T13:53:28;98775.13;;;12.03;100.00
60099;BME280;62818;49.394;8.686;2024-03-29T13:58:34;98771.09;;;12.12;100.00
60099;BME280;62818;49.394;8.686;2024-03-29T14:03:35;98743.09;;;14.12;100.00
60099;BME280;62818;49.394;8.686;2024-03-29T14:08:35;98723.81;;;12.96;100.00
60099;BME280;62818;49.394;8.686;2024-03-29T14:13:36;98741.63;;;14.05;100.00
60099;BME280;62818;49.394;8.686;2024-03-29T14:18:37;98760.13;;;13.02;100.00
60099;BME280;62818;49.394;8.686;2024-03-29T14:23:38;98735.16;;;13.03;100.00
60099;BME280;62818;49.394;8.686;2024-03-29T14:28:38;98705.38;;;14.32;100.00
60099;BME280;62818;49.394;8.686;2024-03-29T14:33:39;98682.72;;;14.79;100.00
60099;BME280;62818;49.394;8.686;2024-03-29T14:38:39;98668.78;;;14.94;100.00
60099;BME280;62818;49.394;8.686;2024-03-29T14:43:39;98686.41;;;13.72;100.00
60099;BME280;62818;49.394;8.686;2024-03-29T14:48:40;98708.97;;;14.26;100.00
60099;BME280;62818;49.394;8.686;2024-03-29T14:53:40;98716.78;;;13.48;100.00
60099;BME280;62818;49.394;8.686;2024-03-29T14:58:47;98698.78;;;13.67;100.00
60099;BME280;62818;49.394;8.686;2024-03-29T15:03:48;98664.94;;;13.79;100.00
60099;BME280;62818;49.394;8.686;2024-03-29T15:08:48;98665.97;;;13.50;100.00
60099;BME280;62818;49.394;8.686;2024-03-29T15:13:49;98687.19;;;13.73;100.00
60099;BME280;62818;49.394;8.686;2024-03-29T15:18:50;98665.97;;;14.06;100.00
60099;BME280;62818;49.394;8.686;2024-03-29T15:23:51;98679.44;;;13.71;100.00
60099;BME280;62818;49.394;8.686;2024-03-29T15:28:51;98645.25;;;13.80;100.00
60099;BME280;62818;49.394;8.686;2024-03-29T15:34:07;98634.25;;;14.04;100.00
60099;BME280;62818;49.394;8.686;2024-03-29T15:39:08;98647.84;;;14.20;100.00
60099;BME280;62818;49.394;8.686;2024-03-29T15:44:08;98645.75;;;13.77;100.00
60099;BME280;62818;49.394;8.686;2024-03-29T15:49:11;98653.97;;;13.64;100.00
60099;BME280;62818;49.394;8.686;2024-03-29T15:54:11;98652.94;;;13.36;100.00
60099;BME280;62818;49.394;8.686;2024-03-29T15:59:16;98647.38;;;13.66;100.00
60099;BME280;62818;49.394;8.686;2024-03-29T16:04:17;98648.22;;;13.55;100.00
60099;BME280;62818;49.394;8.686;2024-03-29T16:09:17;98636.19;;;14.09;100.00
60099;BME280;62818;49.394;8.686;2024-03-29T16:14:17;98625.78;;;14.24;100.00
60099;BME280;62818;49.394;8.686;2024-03-29T16:19:18;98621.72;;;13.60;100.00
60099;BME280;62818;49.394;8.686;2024-03-29T16:24:19;98639.22;;;13.56;100.00
60099;BME280;62818;49.394;8.686;2024-03-29T16:29:19;98628.47;;;13.39;100.00
60099;BME280;62818;49.394;8.686;2024-03-29T16:34:19;98622.31;;;13.51;100.00
60099;BME280;62818;49.394;8.686;2024-03-29T16:39:19;98634.16;;;13.99;100.00
60099;BME280;62818;49.394;8.686;2024-03-29T16:44:20;98608.56;;;13.98;100.00
60099;BME280;62818;49.394;8.686;2024-03-29T16:49:20;98630.59;;;13.94;100.00
60099;BME280;62818;49.394;8.686;2024-03-29T16:54:21;98621.00;;;13.65;100.00
60099;BME280;62818;49.394;8.686;2024-03-29T16:59:21;98614.34;;;13.51;100.00
60099;BME280;62818;49.394;8.686;2024-03-29T17:04:22;98606.66;;;13.66;100.00
60099;BME280;62818;49.394;8.686;2024-03-29T17:09:35;98604.44;;;13.91;100.00
60099;BME280;62818;49.394;8.686;2024-03-29T17:14:37;98597.38;;;14.13;100.00
60099;BME280;62818;49.394;8.686;2024-03-29T17:19:40;98598.00;;;13.30;100.00
60099;BME280;62818;49.394;8.686;2024-03-29T17:24:41;98586.41;;;13.36;100.00
60099;BME280;62818;49.394;8.686;2024-03-29T17:29:41;98582.50;;;13.04;100.00
60099;BME280;62818;49.394;8.686;2024-03-29T17:34:42;98576.22;;;13.33;100.00
60099;BME280;62818;49.394;8.686;2024-03-29T17:39:42;98597.56;;;13.10;100.00
60099;BME280;62818;49.394;8.686;2024-03-29T17:44:43;98621.69;;;13.32;100.00
60099;BME280;62818;49.394;8.686;2024-03-29T17:49:43;98611.38;;;13.35;100.00
60099;BME280;62818;49.394;8.686;2024-03-29T17:54:43;98613.72;;;13.20;100.00
60099;BME280;62818;49.394;8.686;2024-03-29T17:59:44;98614.59;;;12.40;100.00
60099;BME280;62818;49.394;8.686;2024-03-29T18:04:44;98611.22;;;12.56;100.00
60099;BME280;62818;49.394;8.686;2024-03-29T18:09:45;98615.59;;;12.16;100.00
60099;BME280;62818;49.394;8.686;2024-03-29T18:14:45;98611.94;;;12.40;100.00
60099;BME280;62818;49.394;8.686;2024-03-29T18:19:47;98607.84;;;12.26;100.00
60099;BME280;62818;49.394;8.686;2024-03-29T18:24:48;98587.41;;;12.15;100.00
60099;BME280;62818;49.394;8.686;2024-03-29T18:29:48;98560.63;;;12.51;100.00
60099;BME280;62818;49.394;8.686;2024-03-29T18:34:49;98571.59;;;12.43;100.00
60099;BME280;62818;49.394;8.686;2024-03-29T18:39:50;98573.53;;;12.13;100.00
60099;BME280;62818;49.394;8.686;2024-03-29T18:44:54;98570.88;;;12.36;100.00
60099;BME280;62818;49.394;8.686;2024-03-29T18:49:54;98571.75;;;11.83;100.00
60099;BME280;62818;49.394;8.686;2024-03-29T18:54:55;98578.94;;;11.95;100.00
60099;BME280;62818;49.394;8.686;2024-03-29T18:59:55;98562.47;;;12.39;100.00
60099;BME280;62818;49.394;8.686;2024-03-29T19:04:55;98579.59;;;11.90;100.00
60099;BME280;62818;49.394;8.686;2024-03-29T19:09:55;98594.13;;;12.29;100.00
60099;BME280;62818;49.394;8.686;2024-03-29T19:14:56;98598.78;;;11.92;100.00
60099;BME280;62818;49.394;8.686;2024-03-29T19:19:58;98608.50;;;11.68;100.00
60099;BME280;62818;49.394;8.686;2024-03-29T19:24:59;98599.41;;;11.46;100.00
60099;BME280;62818;49.394;8.686;2024-03-29T19:29:59;98598.78;;;11.62;100.00
60099;BME280;62818;49.394;8.686;2024-03-29T19:35:00;98586.09;;;11.64;100.00
60099;BME280;62818;49.394;8.686;2024-03-29T19:40:00;98593.03;;;11.95;100.00
60099;BME280;62818;49.394;8.686;2024-03-29T19:45:00;98594.44;;;11.68;100.00
60099;BME280;62818;49.394;8.686;2024-03-29T19:50:01;98593.34;;;11.57;100.00
60099;BME280;62818;49.394;8.686;2024-03-29T19:55:02;98577.53;;;11.92;100.00
60099;BME280;62818;49.394;8.686;2024-03-29T20:00:03;98571.13;;;11.70;100.00
60099;BME280;62818;49.394;8.686;2024-03-29T20:05:04;98575.22;;;11.84;100.00
60099;BME280;62818;49.394;8.686;2024-03-29T20:10:06;98573.44;;;12.19;100.00
60099;BME280;62818;49.394;8.686;2024-03-29T20:15:07;98567.38;;;11.59;100.00
60099;BME280;62818;49.394;8.686;2024-03-29T20:20:07;98573.03;;;11.93;100.00
60099;BME280;62818;49.394;8.686;2024-03-29T20:25:09;98577.72;;;11.49;100.00
60099;BME280;62818;49.394;8.686;2024-03-29T20:30:10;98570.06;;;11.41;100.00
60099;BME280;62818;49.394;8.686;2024-03-29T20:35:11;98569.00;;;11.60;100.00
60099;BME280;62818;49.394;8.686;2024-03-29T20:40:11;98573.78;;;11.22;100.00
60099;BME280;62818;49.394;8.686;2024-03-29T20:45:12;98562.22;;;12.06;100.00
60099;BME280;62818;49.394;8.686;2024-03-29T20:50:12;98554.69;;;11.61;100.00
60099;BME280;62818;49.394;8.686;2024-03-29T20:55:13;98548.78;;;11.77;100.00
60099;BME280;62818;49.394;8.686;2024-03-29T21:00:14;98540.81;;;11.00;100.00
60099;BME280;62818;49.394;8.686;2024-03-29T21:05:14;98538.22;;;11.30;100.00
60099;BME280;62818;49.394;8.686;2024-03-29T21:10:33;98543.63;;;11.35;100.00
60099;BME280;62818;49.394;8.686;2024-03-29T21:15:35;98553.22;;;10.70;100.00
60099;BME280;62818;49.394;8.686;2024-03-29T21:20:35;98558.66;;;10.75;100.00
60099;BME280;62818;49.394;8.686;2024-03-29T21:25:36;98539.94;;;11.06;100.00
60099;BME280;62818;49.394;8.686;2024-03-29T21:30:36;98555.13;;;10.81;100.00
60099;BME280;62818;49.394;8.686;2024-03-29T21:35:37;98551.59;;;11.05;100.00
60099;BME280;62818;49.394;8.686;2024-03-29T21:40:38;98551.25;;;11.13;100.00
60099;BME280;62818;49.394;8.686;2024-03-29T21:45:38;98537.72;;;11.21;100.00
60099;BME280;62818;49.394;8.686;2024-03-29T21:50:38;98544.38;;;11.12;100.00
60099;BME280;62818;49.394;8.686;2024-03-29T21:55:39;98540.22;;;11.16;100.00
60099;BME280;62818;49.394;8.686;2024-03-29T22:00:39;98563.13;;;10.56;100.00
60099;BME280;62818;49.394;8.686;2024-03-29T22:05:39;98576.84;;;11.07;100.00
60099;BME280;62818;49.394;8.686;2024-03-29T22:10:42;98578.41;;;10.97;100.00
60099;BME280;62818;49.394;8.686;2024-03-29T22:15:42;98595.31;;;10.96;100.00
60099;BME280;62818;49.394;8.686;2024-03-29T22:20:43;98589.28;;;11.07;100.00
60099;BME280;62818;49.394;8.686;2024-03-29T22:25:43;98571.44;;;11.32;100.00
60099;BME280;62818;49.394;8.686;2024-03-29T22:30:43;98569.84;;;10.77;100.00
60099;BME280;62818;49.394;8.686;2024-03-29T22:35:44;98564.53;;;10.95;100.00
60099;BME280;62818;49.394;8.686;2024-03-29T22:40:44;98555.47;;;11.02;100.00
60099;BME280;62818;49.394;8.686;2024-03-29T22:45:45;98552.91;;;10.78;100.00
60099;BME280;62818;49.394;8.686;2024-03-29T22:50:46;98551.34;;;11.06;100.00
60099;BME280;62818;49.394;8.686;2024-03-29T22:55:50;98556.59;;;10.16;100.00
60099;BME280;62818;49.394;8.686;2024-03-29T23:00:50;98561.94;;;10.34;100.00
60099;BME280;62818;49.394;8.686;2024-03-29T23:05:50;98581.81;;;9.87;100.00
60099;BME280;62818;49.394;8.686;2024-03-29T23:10:51;98564.28;;;11.33;100.00
60099;BME280;62818;49.394;8.686;2024-03-29T23:15:52;98560.03;;;11.13;100.00
60099;BME280;62818;49.394;8.686;2024-03-29T23:20:56;98555.75;;;11.12;100.00
60099;BME280;62818;49.394;8.686;2024-03-29T23:25:57;98574.13;;;10.10;100.00
60099;BME280;62818;49.394;8.686;2024-03-29T23:30:58;98568.09;;;9.72;100.00
60099;BME280;62818;49.394;8.686;2024-03-29T23:35:58;98581.56;;;10.26;100.00
60099;BME280;62818;49.394;8.686;2024-03-29T23:40:58;98579.53;;;9.97;100.00
60099;BME280;62818;49.394;8.686;2024-03-29T23:46:03;98592.75;;;10.47;100.00
60099;BME280;62818;49.394;8.686;2024-03-29T23:51:04;98580.81;;;10.19;100.00
60099;BME280;62818;49.394;8.686;2024-03-29T23:56:05;98586.91;;;10.63;100.00
